createdAt,value
2022-08-27T04:02:49.325Z,10.50
2022-08-27T04:03:49.240Z,10.69
2022-08-27T04:04:49.228Z,10.19
2022-08-27T04:05:49.218Z,10.60
2022-08-27T04:09:49.173Z,11.19
2022-08-27T04:10:49.164Z,10.10
2022-08-27T04:11:49.157Z,10.39
2022-08-27T04:12:49.145Z,9.69
2022-08-27T04:14:49.123Z,10.10
2022-08-27T04:15:49.148Z,9.89
2022-08-27T04:16:49.100Z,14.50
2022-08-27T04:17:49.092Z,8.69
2022-08-27T04:18:49.080Z,9.30
2022-08-27T04:19:49.068Z,9.89
2022-08-27T04:20:49.059Z,9.00
2022-08-27T04:21:49.048Z,12.50
2022-08-27T04:22:49.038Z,9.39
2022-08-27T04:23:49.030Z,9.50
2022-08-27T04:24:49.016Z,9.00
2022-08-27T04:25:49.009Z,7.80
2022-08-27T04:26:48.995Z,8.69
2022-08-27T04:27:48.984Z,8.50
2022-08-27T04:28:48.994Z,8.89
2022-08-27T04:29:48.966Z,9.00
2022-08-27T04:30:49.026Z,9.50
2022-08-27T04:31:48.946Z,11.69
2022-08-27T04:32:48.959Z,11.60
2022-08-27T04:33:50.981Z,9.50
2022-08-27T04:34:48.910Z,10.50
2022-08-27T04:35:48.899Z,10.60
2022-08-27T04:36:48.890Z,10.80
2022-08-27T04:37:48.877Z,10.39
2022-08-27T04:38:48.868Z,9.30
2022-08-27T04:39:50.415Z,8.69
2022-08-27T04:40:48.846Z,11.00
2022-08-27T04:41:48.836Z,9.30
2022-08-27T04:42:48.827Z,9.30
2022-08-27T04:43:48.818Z,9.80
2022-08-27T04:44:48.804Z,10.69
2022-08-27T04:45:48.795Z,9.60
2022-08-27T04:46:49.504Z,9.60
2022-08-27T04:47:48.774Z,9.50
2022-08-27T04:48:48.764Z,9.69
2022-08-27T04:49:48.753Z,9.80
2022-08-27T04:50:48.740Z,10.19
2022-08-27T04:51:48.732Z,9.10
2022-08-27T04:52:48.720Z,10.30
2022-08-27T04:53:48.712Z,12.19
2022-08-27T04:54:48.699Z,9.39
2022-08-27T04:55:48.690Z,10.30
2022-08-27T04:56:48.680Z,10.60
2022-08-27T04:57:48.672Z,9.30
2022-08-27T04:58:48.661Z,11.19
2022-08-27T04:59:48.649Z,10.39
2022-08-27T05:00:48.638Z,11.00
2022-08-27T05:01:48.726Z,9.69
2022-08-27T05:02:48.615Z,10.19
2022-08-27T05:03:48.606Z,11.89
2022-08-27T05:04:48.669Z,10.50
2022-08-27T05:05:48.586Z,9.89
2022-08-27T05:06:48.574Z,10.19
2022-08-27T05:07:48.563Z,9.10
2022-08-27T05:08:48.556Z,10.50
2022-08-27T05:09:48.548Z,9.69
2022-08-27T05:10:48.534Z,8.30
2022-08-27T05:11:48.523Z,8.69
2022-08-27T05:12:49.291Z,8.30
2022-08-27T05:13:48.501Z,9.00
2022-08-27T05:14:48.492Z,8.80
2022-08-27T05:15:48.551Z,8.19
2022-08-27T05:16:48.469Z,8.60
2022-08-27T05:17:48.465Z,9.69
2022-08-27T05:18:48.802Z,8.19
2022-08-27T05:19:48.438Z,8.50
2022-08-27T05:20:48.428Z,7.00
2022-08-27T05:21:48.419Z,9.39
2022-08-27T05:22:48.408Z,8.30
2022-08-27T05:23:48.398Z,9.50
2022-08-27T05:24:50.338Z,8.39
2022-08-27T05:25:48.379Z,8.00
2022-08-27T05:26:48.367Z,9.39
2022-08-27T05:27:48.357Z,9.00
2022-08-27T05:28:48.346Z,9.00
2022-08-27T05:29:48.333Z,9.60
2022-08-27T05:30:52.303Z,8.60
2022-08-27T05:31:49.334Z,8.69
2022-08-27T05:32:48.306Z,10.89
2022-08-27T05:33:48.296Z,9.39
2022-08-27T05:34:48.283Z,9.60
2022-08-27T05:35:48.270Z,9.39
2022-08-27T05:36:49.129Z,9.89
2022-08-27T05:37:48.249Z,9.60
2022-08-27T05:38:48.241Z,9.60
2022-08-27T05:39:48.232Z,11.10
2022-08-27T05:40:48.232Z,9.39
2022-08-27T05:41:48.208Z,9.10
2022-08-27T05:42:51.083Z,7.90
2022-08-27T05:43:50.387Z,9.80
2022-08-27T05:44:48.176Z,9.69
2022-08-27T05:45:48.168Z,10.50
2022-08-27T05:46:48.157Z,9.00
2022-08-27T05:47:48.145Z,9.19
2022-08-27T05:48:48.135Z,9.80
2022-08-27T05:49:48.125Z,8.69
2022-08-27T05:50:48.115Z,8.19
2022-08-27T05:51:48.106Z,8.10
2022-08-27T05:52:48.091Z,8.19
2022-08-27T05:53:48.084Z,8.50
2022-08-27T05:54:48.074Z,8.39
2022-08-27T05:55:48.063Z,10.19
2022-08-27T05:56:48.061Z,8.19
2022-08-27T05:57:48.041Z,10.60
2022-08-27T05:58:48.036Z,9.69
2022-08-27T05:59:48.022Z,11.00
2022-08-27T06:00:48.010Z,8.19
2022-08-27T06:01:48.001Z,8.39
2022-08-27T06:02:48.029Z,8.80
2022-08-27T06:03:47.981Z,9.39
2022-08-27T06:04:48.044Z,8.80
2022-08-27T06:05:47.962Z,9.00
2022-08-27T06:06:47.950Z,9.89
2022-08-27T06:07:47.940Z,8.69
2022-08-27T06:08:47.927Z,9.00
2022-08-27T06:09:47.924Z,10.30
2022-08-27T06:10:47.908Z,9.69
2022-08-27T06:11:47.902Z,8.80
2022-08-27T06:12:47.888Z,10.30
2022-08-27T06:13:47.876Z,8.69
2022-08-27T06:14:47.864Z,10.60
2022-08-27T06:15:47.926Z,10.00
2022-08-27T06:16:47.844Z,9.30
2022-08-27T06:17:47.836Z,12.69
2022-08-27T06:18:47.827Z,11.10
2022-08-27T06:19:47.815Z,12.60
2022-08-27T06:20:47.805Z,9.69
2022-08-27T06:22:00.123Z,10.80
2022-08-27T06:22:47.781Z,9.80
2022-08-27T06:23:47.771Z,9.89
2022-08-27T06:24:47.762Z,8.69
2022-08-27T06:25:47.754Z,9.80
2022-08-27T06:26:47.743Z,9.69
2022-08-27T06:27:47.732Z,9.69
2022-08-27T06:28:47.722Z,8.60
2022-08-27T06:29:47.709Z,10.19
2022-08-27T06:30:47.779Z,9.50
2022-08-27T06:31:47.689Z,8.39
2022-08-27T06:32:47.675Z,10.30
2022-08-27T06:33:47.668Z,9.60
2022-08-27T06:34:47.659Z,9.80
2022-08-27T06:35:47.647Z,9.50
2022-08-27T06:36:47.635Z,10.10
2022-08-27T06:37:47.627Z,9.39
2022-08-27T06:38:47.619Z,10.30
2022-08-27T06:39:47.608Z,9.50
2022-08-27T06:40:47.596Z,9.19
2022-08-27T06:41:47.586Z,10.50
2022-08-27T06:42:47.576Z,9.89
2022-08-27T06:43:47.565Z,8.69
2022-08-27T06:44:47.553Z,10.00
2022-08-27T06:45:47.542Z,9.60
2022-08-27T06:46:47.532Z,10.80
2022-08-27T06:47:47.523Z,9.39
2022-08-27T06:48:47.512Z,10.10
2022-08-27T06:49:47.501Z,8.69
2022-08-27T06:50:47.490Z,9.69
2022-08-27T06:51:47.481Z,8.89
2022-08-27T06:52:47.472Z,9.39
2022-08-27T06:53:47.461Z,11.19
2022-08-27T06:54:47.454Z,9.80
2022-08-27T06:55:47.443Z,9.60
2022-08-27T06:56:47.427Z,9.39
2022-08-27T06:57:47.430Z,9.60
2022-08-27T06:58:47.411Z,9.00
2022-08-27T06:59:47.400Z,9.80
2022-08-27T07:00:49.085Z,10.19
2022-08-27T07:01:47.472Z,10.50
2022-08-27T07:02:47.444Z,8.50
2022-08-27T07:03:47.359Z,9.10
2022-08-27T07:04:47.351Z,10.60
2022-08-27T07:05:47.339Z,9.60
2022-08-27T07:06:47.327Z,9.19
2022-08-27T07:07:48.899Z,8.69
2022-08-27T07:08:53.037Z,10.10
2022-08-27T07:09:47.300Z,9.80
2022-08-27T07:10:47.295Z,9.39
2022-08-27T07:11:47.276Z,9.50
2022-08-27T07:12:47.268Z,9.69
2022-08-27T07:13:47.256Z,10.89
2022-08-27T07:14:47.247Z,11.30
2022-08-27T07:15:47.289Z,10.10
2022-08-27T07:16:48.331Z,11.39
2022-08-27T07:17:47.215Z,10.10
2022-08-27T07:18:47.206Z,11.10
2022-08-27T07:19:47.192Z,9.50
2022-08-27T07:20:47.180Z,8.69
2022-08-27T07:21:47.173Z,9.30
2022-08-27T07:22:47.161Z,10.50
2022-08-27T07:23:47.152Z,9.50
2022-08-27T07:24:47.141Z,10.69
2022-08-27T07:25:47.132Z,10.19
2022-08-27T07:26:47.121Z,9.89
2022-08-27T07:27:47.109Z,10.89
2022-08-27T07:28:47.102Z,8.89
2022-08-27T07:29:47.093Z,10.19
2022-08-27T07:30:47.132Z,9.10
2022-08-27T07:31:47.070Z,9.50
2022-08-27T07:32:47.060Z,9.19
2022-08-27T07:33:52.226Z,9.39
2022-08-27T07:34:48.059Z,9.10
2022-08-27T07:35:47.030Z,8.30
2022-08-27T07:36:47.023Z,10.10
2022-08-27T07:37:47.010Z,9.89
2022-08-27T07:38:56.527Z,10.89
2022-08-27T07:39:46.988Z,10.69
2022-08-27T07:40:46.976Z,9.30
2022-08-27T07:41:46.970Z,12.50
2022-08-27T07:42:46.958Z,10.00
2022-08-27T07:43:46.950Z,9.30
2022-08-27T07:44:46.941Z,10.00
2022-08-27T07:45:47.000Z,9.80
2022-08-27T07:46:48.443Z,8.50
2022-08-27T07:47:46.907Z,9.19
2022-08-27T07:48:46.899Z,9.39
2022-08-27T07:49:46.885Z,10.39
2022-08-27T07:50:46.877Z,10.00
2022-08-27T07:51:46.863Z,9.10
2022-08-27T07:52:46.856Z,9.19
2022-08-27T07:53:46.855Z,10.39
2022-08-27T07:54:46.834Z,9.10
2022-08-27T07:55:46.826Z,8.60
2022-08-27T07:56:55.177Z,10.89
2022-08-27T07:57:47.827Z,11.50
2022-08-27T07:58:46.803Z,9.50
2022-08-27T07:59:46.789Z,9.60
2022-08-27T08:00:46.782Z,8.30
2022-08-27T08:01:46.808Z,8.80
2022-08-27T08:02:46.826Z,9.00
2022-08-27T08:03:46.746Z,9.69
2022-08-27T08:04:46.735Z,8.39
2022-08-27T08:05:46.727Z,8.50
2022-08-27T08:06:46.716Z,8.69
2022-08-27T08:07:46.705Z,8.19
2022-08-27T08:08:46.697Z,9.39
2022-08-27T08:09:46.688Z,10.00
2022-08-27T08:10:46.675Z,9.80
2022-08-27T08:11:46.667Z,9.60
2022-08-27T08:12:46.656Z,10.00
2022-08-27T08:13:46.643Z,10.30
2022-08-27T08:14:46.633Z,9.80
2022-08-27T08:15:46.625Z,9.50
2022-08-27T08:16:46.721Z,8.30
2022-08-27T08:17:46.608Z,9.69
2022-08-27T08:18:46.594Z,9.89
2022-08-27T08:19:57.341Z,9.00
2022-08-27T08:20:58.083Z,9.19
2022-08-27T08:21:47.589Z,9.30
2022-08-27T08:22:46.554Z,10.39
2022-08-27T08:23:46.547Z,10.00
2022-08-27T08:24:46.537Z,9.19
2022-08-27T08:25:46.527Z,9.69
2022-08-27T08:26:46.518Z,8.30
2022-08-27T08:27:46.504Z,11.60
2022-08-27T08:28:46.495Z,7.80
2022-08-27T08:29:46.487Z,9.10
2022-08-27T08:30:46.544Z,10.00
2022-08-27T08:31:49.910Z,9.10
2022-08-27T08:32:46.455Z,8.10
2022-08-27T08:33:46.445Z,8.60
2022-08-27T08:34:46.435Z,9.00
2022-08-27T08:35:46.426Z,7.90
2022-08-27T08:36:49.035Z,9.89
2022-08-27T08:37:47.428Z,9.19
2022-08-27T08:38:46.396Z,9.19
2022-08-27T08:39:46.385Z,8.39
2022-08-27T08:40:46.378Z,7.50
2022-08-27T08:41:46.368Z,6.69
2022-08-27T08:42:50.837Z,9.10
2022-08-27T08:43:46.345Z,7.90
2022-08-27T08:44:46.338Z,9.10
2022-08-27T08:45:46.361Z,7.69
2022-08-27T08:46:46.316Z,9.10
2022-08-27T08:47:46.309Z,7.80
2022-08-27T08:48:46.301Z,8.80
2022-08-27T08:49:46.289Z,7.90
2022-08-27T08:50:46.278Z,8.00
2022-08-27T08:51:46.271Z,10.19
2022-08-27T08:52:46.259Z,8.00
2022-08-27T08:53:46.252Z,9.19
2022-08-27T08:54:46.241Z,7.59
2022-08-27T08:55:46.231Z,6.50
2022-08-27T08:56:46.223Z,8.19
2022-08-27T08:57:46.214Z,7.19
2022-08-27T08:58:46.203Z,8.89
2022-08-27T08:59:46.198Z,7.30
2022-08-27T09:00:46.184Z,8.89
2022-08-27T09:01:46.247Z,7.00
2022-08-27T09:02:46.166Z,6.40
2022-08-27T09:03:46.211Z,7.90
2022-08-27T09:04:46.147Z,6.00
2022-08-27T09:05:46.135Z,6.59
2022-08-27T09:06:46.126Z,5.90
2022-08-27T09:07:47.208Z,5.80
2022-08-27T09:08:46.456Z,7.09
2022-08-27T09:09:46.096Z,6.40
2022-08-27T09:10:46.089Z,7.90
2022-08-27T09:11:46.082Z,7.40
2022-08-27T09:12:46.071Z,8.10
2022-08-27T09:13:46.059Z,9.39
2022-08-27T09:14:46.303Z,5.50
2022-08-27T09:15:46.043Z,7.50
2022-08-27T09:16:46.059Z,6.30
2022-08-27T09:17:46.024Z,8.39
2022-08-27T09:18:46.013Z,6.30
2022-08-27T09:19:46.005Z,6.59
2022-08-27T09:20:45.996Z,6.00
2022-08-27T09:21:45.983Z,5.40
2022-08-27T09:22:45.976Z,7.69
2022-08-27T09:23:45.970Z,6.80
2022-08-27T09:24:45.958Z,6.30
2022-08-27T09:25:45.948Z,6.59
2022-08-27T09:26:45.936Z,6.50
2022-08-27T09:27:45.928Z,7.09
2022-08-27T09:28:45.919Z,7.09
2022-08-27T09:29:45.906Z,7.50
2022-08-27T09:30:45.929Z,10.30
2022-08-27T09:31:45.888Z,8.69
2022-08-27T09:32:45.879Z,6.30
2022-08-27T09:33:56.193Z,6.50
2022-08-27T09:34:46.883Z,7.09
2022-08-27T09:35:45.851Z,6.09
2022-08-27T09:36:45.841Z,6.40
2022-08-27T09:37:45.836Z,7.19
2022-08-27T09:38:45.826Z,6.59
2022-08-27T09:39:46.839Z,6.90
2022-08-27T09:40:45.864Z,6.09
2022-08-27T09:41:45.799Z,6.50
2022-08-27T09:42:46.050Z,6.90
2022-08-27T09:43:45.779Z,8.39
2022-08-27T09:44:49.159Z,8.30
2022-08-27T09:45:45.803Z,7.90
2022-08-27T09:46:45.751Z,6.59
2022-08-27T09:47:45.740Z,7.69
2022-08-27T09:48:45.730Z,8.00
2022-08-27T09:49:45.722Z,8.60
2022-08-27T09:50:45.717Z,7.69
2022-08-27T09:51:45.702Z,10.00
2022-08-27T09:52:45.695Z,8.10
2022-08-27T09:53:45.682Z,6.90
2022-08-27T09:54:45.677Z,7.09
2022-08-27T09:55:45.666Z,7.40
2022-08-27T09:56:45.659Z,6.19
2022-08-27T09:57:45.653Z,9.10
2022-08-27T09:58:45.642Z,6.69
2022-08-27T09:59:45.629Z,8.30
2022-08-27T10:00:45.671Z,8.80
2022-08-27T10:01:45.611Z,10.19
2022-08-27T10:02:45.601Z,6.69
2022-08-27T10:03:45.649Z,6.40
2022-08-27T10:04:51.469Z,6.59
2022-08-27T10:05:45.575Z,6.30
2022-08-27T10:06:45.566Z,6.69
2022-08-27T10:07:45.556Z,6.80
2022-08-27T10:08:45.547Z,7.00
2022-08-27T10:09:45.539Z,7.09
2022-08-27T10:10:45.530Z,7.09
2022-08-27T10:11:45.521Z,6.90
2022-08-27T10:12:45.513Z,6.50
2022-08-27T10:13:45.502Z,7.50
2022-08-27T10:14:45.494Z,6.40
2022-08-27T10:15:49.305Z,5.50
2022-08-27T10:16:45.506Z,6.30
2022-08-27T10:17:45.467Z,5.00
2022-08-27T10:18:45.456Z,6.59
2022-08-27T10:19:45.448Z,7.90
2022-08-27T10:20:45.440Z,6.50
2022-08-27T10:21:45.433Z,8.19
2022-08-27T10:22:45.422Z,6.80
2022-08-27T10:23:45.417Z,7.09
2022-08-27T10:24:45.407Z,7.80
2022-08-27T10:25:45.398Z,7.59
2022-08-27T10:26:45.390Z,6.40
2022-08-27T10:27:45.377Z,7.40
2022-08-27T10:28:45.371Z,6.19
2022-08-27T10:29:45.362Z,6.80
2022-08-27T10:30:45.402Z,7.09
2022-08-27T10:31:45.425Z,6.90
2022-08-27T10:32:45.332Z,8.80
2022-08-27T10:33:45.324Z,6.90
2022-08-27T10:34:45.318Z,6.50
2022-08-27T10:35:47.934Z,8.19
2022-08-27T10:36:46.320Z,7.59
2022-08-27T10:37:45.288Z,6.40
2022-08-27T10:38:45.279Z,8.30
2022-08-27T10:39:45.274Z,9.19
2022-08-27T10:40:45.260Z,6.80
2022-08-27T10:41:45.254Z,7.90
2022-08-27T10:42:45.245Z,7.30
2022-08-27T10:43:45.237Z,6.80
2022-08-27T10:44:45.226Z,7.59
2022-08-27T10:45:45.260Z,7.50
2022-08-27T10:46:50.064Z,7.40
2022-08-27T10:47:45.197Z,7.19
2022-08-27T10:48:45.190Z,7.19
2022-08-27T10:49:45.183Z,7.30
2022-08-27T10:50:45.174Z,7.00
2022-08-27T10:51:45.166Z,6.40
2022-08-27T10:52:45.155Z,6.90
2022-08-27T10:53:45.149Z,6.09
2022-08-27T10:54:45.140Z,7.50
2022-08-27T10:55:45.131Z,6.69
2022-08-27T10:56:45.121Z,6.30
2022-08-27T10:57:57.678Z,6.50
2022-08-27T10:58:46.126Z,9.39
2022-08-27T10:59:45.094Z,7.69
2022-08-27T11:00:45.105Z,6.40
2022-08-27T11:01:45.105Z,6.09
2022-08-27T11:02:45.073Z,8.60
2022-08-27T11:03:45.062Z,6.30
2022-08-27T11:04:45.052Z,7.30
2022-08-27T11:05:45.043Z,7.09
2022-08-27T11:06:45.034Z,6.90
2022-08-27T11:07:45.027Z,7.40
2022-08-27T11:08:45.015Z,6.80
2022-08-27T11:09:45.015Z,6.69
2022-08-27T11:10:45.002Z,7.90
2022-08-27T11:12:13.402Z,6.40
2022-08-27T11:12:46.005Z,7.80
2022-08-27T11:13:44.976Z,7.90
2022-08-27T11:14:44.966Z,6.80
2022-08-27T11:15:44.957Z,7.00
2022-08-27T11:16:45.843Z,7.19
2022-08-27T11:17:44.942Z,6.69
2022-08-27T11:18:44.933Z,6.19
2022-08-27T11:19:44.925Z,6.80
2022-08-27T11:20:44.915Z,6.40
2022-08-27T11:21:44.907Z,9.50
2022-08-27T11:22:44.897Z,10.00
2022-08-27T11:23:44.886Z,5.90
2022-08-27T11:24:44.880Z,6.59
2022-08-27T11:25:44.871Z,8.10
2022-08-27T11:26:44.863Z,7.09
2022-08-27T11:27:44.856Z,6.50
2022-08-27T11:28:44.846Z,8.50
2022-08-27T11:29:44.835Z,9.00
2022-08-27T11:30:44.828Z,9.39
2022-08-27T11:31:44.912Z,6.40
2022-08-27T11:32:44.818Z,6.69
2022-08-27T11:33:46.223Z,6.59
2022-08-27T11:34:44.795Z,6.59
2022-08-27T11:35:44.785Z,8.00
2022-08-27T11:36:44.776Z,9.60
2022-08-27T11:37:44.769Z,7.09
2022-08-27T11:38:44.759Z,6.30
2022-08-27T11:39:47.589Z,8.10
2022-08-27T11:40:45.766Z,6.30
2022-08-27T11:41:45.447Z,7.30
2022-08-27T11:42:44.729Z,7.19
2022-08-27T11:43:44.722Z,7.90
2022-08-27T11:44:44.710Z,8.10
2022-08-27T11:45:48.303Z,8.80
2022-08-27T11:46:44.734Z,6.80
2022-08-27T11:47:44.683Z,7.59
2022-08-27T11:48:44.677Z,7.50
2022-08-27T11:49:44.667Z,7.40
2022-08-27T11:50:44.661Z,6.40
2022-08-27T11:51:44.653Z,6.50
2022-08-27T11:52:44.644Z,7.50
2022-08-27T11:53:52.474Z,7.40
2022-08-27T11:54:45.648Z,7.09
2022-08-27T11:55:44.616Z,6.40
2022-08-27T11:56:44.615Z,8.30
2022-08-27T11:57:44.610Z,6.40
2022-08-27T11:58:53.313Z,6.50
2022-08-27T11:59:45.606Z,8.30
2022-08-27T12:00:44.575Z,7.59
2022-08-27T12:01:44.567Z,8.60
2022-08-27T12:02:44.555Z,7.09
2022-08-27T12:03:44.744Z,7.90
2022-08-27T12:05:25.896Z,8.10
2022-08-27T12:06:06.624Z,7.19
2022-08-27T12:06:44.518Z,6.59
2022-08-27T12:07:44.509Z,8.10
2022-08-27T12:08:44.502Z,10.89
2022-08-27T12:09:55.568Z,8.50
2022-08-27T12:10:44.487Z,7.69
2022-08-27T12:11:44.475Z,8.80
2022-08-27T12:12:44.466Z,8.89
2022-08-27T12:25:12.256Z,8.69
2022-08-27T12:25:13.667Z,7.69
2022-08-27T12:29:13.338Z,8.10
2022-08-27T12:30:52.010Z,8.00
2022-08-27T12:55:40.639Z,7.50
2022-08-27T12:55:43.423Z,7.19
2022-08-27T12:56:43.415Z,7.00
2022-08-27T12:58:40.439Z,7.90
2022-08-27T12:58:43.399Z,7.59
2022-08-27T13:15:17.066Z,7.40
2022-08-27T13:16:22.021Z,6.50
2022-08-27T13:17:18.567Z,6.69
2022-08-27T13:18:18.659Z,9.60
2022-08-27T13:29:56.937Z,6.90
2022-08-27T13:29:58.347Z,6.80
2022-08-27T13:30:58.372Z,6.50
2022-08-27T13:33:31.507Z,6.69
2022-08-27T13:33:32.884Z,8.00
2022-08-27T13:34:32.877Z,8.60
2022-08-27T13:36:14.410Z,7.50
2022-08-27T13:36:32.861Z,5.80
2022-08-27T13:39:05.835Z,6.00
2022-08-27T13:39:07.242Z,6.69
2022-08-27T13:51:35.580Z,6.69
2022-08-27T13:51:36.954Z,7.30
2022-08-27T13:52:36.948Z,7.30
2022-08-27T13:53:36.942Z,7.30
2022-08-27T13:54:36.931Z,7.19
2022-08-27T13:55:36.925Z,7.00
2022-08-27T14:20:54.938Z,7.09
2022-08-27T14:22:00.296Z,7.19
2022-08-27T14:22:56.333Z,5.69
2022-08-27T14:23:56.326Z,6.69
2022-08-27T14:24:56.319Z,8.00
2022-08-27T14:39:37.170Z,8.19
2022-08-27T14:40:38.787Z,6.00
2022-08-27T14:41:38.683Z,9.60
2022-08-27T14:42:38.678Z,8.30
2022-08-27T14:43:38.665Z,7.00
2022-08-27T14:44:38.656Z,6.69
2022-08-27T14:45:38.651Z,6.40
2022-08-27T14:46:41.536Z,7.09
2022-08-27T14:47:38.635Z,5.69
2022-08-27T14:48:38.628Z,7.30
2022-08-27T14:49:38.617Z,7.09
2022-08-27T14:50:38.609Z,5.40
2022-08-27T14:51:38.602Z,7.09
2022-08-27T14:52:38.590Z,7.40
2022-08-27T14:57:35.839Z,5.09
2022-08-27T14:57:37.220Z,5.90
2022-08-27T14:58:37.209Z,6.69
2022-08-27T14:59:37.202Z,5.50
2022-08-27T15:00:37.190Z,4.69
2022-08-27T15:01:37.256Z,4.19
2022-08-27T15:02:37.174Z,4.09
2022-08-27T15:03:37.171Z,4.30
2022-08-27T15:04:37.215Z,5.00
2022-08-27T15:05:37.149Z,4.50
2022-08-27T15:06:37.138Z,5.50
2022-08-27T15:07:37.131Z,5.30
2022-08-27T15:08:37.122Z,5.40
2022-08-27T15:19:30.561Z,5.80
2022-08-27T15:19:31.939Z,6.30
2022-08-27T15:20:31.931Z,5.59
2022-08-27T15:21:31.920Z,6.09
2022-08-27T15:22:44.087Z,5.69
2022-08-27T15:25:07.927Z,6.40
2022-08-27T15:25:09.306Z,5.90
2022-08-27T15:26:09.296Z,6.00
2022-08-27T15:27:09.295Z,11.00
2022-08-27T15:28:09.319Z,8.69
2022-08-27T15:30:23.147Z,7.00
2022-08-27T15:30:24.537Z,7.40
2022-08-27T15:31:24.652Z,7.30
2022-08-27T15:32:24.519Z,8.10
2022-08-27T15:33:24.510Z,9.80
2022-08-27T15:34:24.505Z,9.00
2022-08-27T15:35:24.496Z,7.59
2022-08-27T15:36:24.483Z,9.10
2022-08-27T15:37:24.476Z,8.50
2022-08-27T15:38:24.465Z,7.59
2022-08-27T15:39:24.456Z,9.00
2022-08-27T15:40:24.527Z,9.19
2022-08-27T15:41:28.651Z,9.50
2022-08-27T15:42:24.427Z,8.50
2022-08-27T15:43:24.420Z,9.00
2022-08-27T15:44:24.413Z,8.89
2022-08-27T15:45:25.505Z,9.00
2022-08-27T15:46:24.478Z,11.30
2022-08-27T15:47:24.381Z,9.50
2022-08-27T15:48:24.369Z,9.30
2022-08-27T15:49:24.373Z,8.80
2022-08-27T15:50:24.352Z,10.30
2022-08-27T15:51:24.342Z,10.89
2022-08-27T15:52:24.336Z,12.69
2022-08-27T15:53:24.321Z,9.50
2022-08-27T15:54:24.318Z,8.19
2022-08-27T15:55:24.304Z,11.00
2022-08-27T15:56:24.293Z,9.69
2022-08-27T15:57:24.284Z,9.89
2022-08-27T15:58:24.276Z,9.69
2022-08-27T15:59:24.265Z,11.30
2022-08-27T16:00:24.257Z,10.10
2022-08-27T16:01:24.294Z,10.69
2022-08-27T16:02:24.282Z,10.80
2022-08-27T16:03:28.133Z,8.80
2022-08-27T16:04:25.233Z,9.89
2022-08-27T16:05:24.205Z,9.89
2022-08-27T16:06:24.195Z,9.19
2022-08-27T16:07:24.189Z,10.60
2022-08-27T16:08:24.174Z,10.80
2022-08-27T16:09:24.175Z,13.69
2022-08-27T16:10:24.160Z,10.80
2022-08-27T16:11:24.145Z,9.30
2022-08-27T16:12:27.508Z,10.50
2022-08-27T16:13:24.142Z,12.19
2022-08-27T16:14:24.112Z,9.80
2022-08-27T16:15:24.105Z,9.19
2022-08-27T16:16:24.212Z,11.00
2022-08-27T16:17:24.092Z,9.30
2022-08-27T16:18:24.072Z,8.80
2022-08-27T16:19:24.062Z,10.50
2022-08-27T16:20:24.054Z,10.60
2022-08-27T16:21:24.093Z,8.80
2022-08-27T16:22:24.032Z,7.69
2022-08-27T16:23:24.020Z,12.39
2022-08-27T16:24:24.011Z,9.50
2022-08-27T16:25:24.000Z,9.80
2022-08-27T16:26:23.989Z,9.39
2022-08-27T16:27:23.981Z,8.50
2022-08-27T16:28:23.976Z,8.10
2022-08-27T16:29:23.961Z,8.39
2022-08-27T16:30:23.964Z,9.69
2022-08-27T16:31:24.061Z,9.50
2022-08-27T16:32:25.872Z,8.69
2022-08-27T16:33:23.919Z,8.89
2022-08-27T16:34:23.907Z,9.69
2022-08-27T16:35:23.900Z,8.80
2022-08-27T16:36:23.939Z,8.69
2022-08-27T16:37:23.877Z,10.50
2022-08-27T16:38:23.870Z,12.19
2022-08-27T16:39:23.861Z,8.80
2022-08-27T16:40:23.923Z,8.60
2022-08-27T16:41:23.837Z,10.30
2022-08-27T16:42:23.827Z,9.69
2022-08-27T16:43:23.816Z,10.50
2022-08-27T16:44:23.809Z,8.30
2022-08-27T16:45:23.802Z,7.59
2022-08-27T16:46:23.843Z,8.30
2022-08-27T16:47:23.878Z,8.60
2022-08-27T16:48:23.768Z,9.69
2022-08-27T16:49:23.760Z,8.19
2022-08-27T16:50:26.184Z,8.39
2022-08-27T16:51:23.737Z,7.59
2022-08-27T16:52:23.730Z,7.40
2022-08-27T16:53:23.718Z,7.40
2022-08-27T16:54:23.706Z,7.90
2022-08-27T16:55:23.699Z,8.10
2022-08-27T16:56:26.386Z,7.50
2022-08-27T16:57:23.679Z,8.19
2022-08-27T16:58:23.672Z,8.89
2022-08-27T16:59:23.663Z,7.30
2022-08-27T17:00:23.652Z,7.80
2022-08-27T17:01:23.720Z,6.80
2022-08-27T17:02:25.490Z,8.10
2022-08-27T17:03:23.623Z,7.59
2022-08-27T17:04:30.270Z,7.40
2022-08-27T17:05:34.272Z,9.80
2022-08-27T17:06:24.614Z,7.40
2022-08-27T17:07:25.725Z,6.90
2022-08-27T17:08:26.102Z,8.60
2022-08-27T17:09:23.562Z,9.00
2022-08-27T17:10:23.551Z,8.19
2022-08-27T17:11:23.542Z,8.80
2022-08-27T17:12:23.532Z,8.60
2022-08-27T17:13:28.326Z,8.69
2022-08-27T17:14:23.511Z,8.39
2022-08-27T17:15:23.505Z,9.19
2022-08-27T17:16:23.589Z,8.89
2022-08-27T17:17:23.480Z,8.60
2022-08-27T17:18:23.473Z,8.00
2022-08-27T17:19:23.463Z,9.10
2022-08-27T17:20:23.454Z,11.60
2022-08-27T17:21:27.778Z,8.60
2022-08-27T17:22:24.452Z,9.60
2022-08-27T17:23:23.423Z,8.89
2022-08-27T17:24:23.466Z,8.69
2022-08-27T17:25:23.401Z,8.50
2022-08-27T17:26:24.410Z,9.60
2022-08-27T17:27:23.382Z,9.10
2022-08-27T17:28:23.370Z,9.30
2022-08-27T17:29:23.363Z,12.00
2022-08-27T17:30:23.355Z,9.00
2022-08-27T17:31:27.849Z,10.10
2022-08-27T17:32:23.330Z,9.80
2022-08-27T17:33:23.319Z,11.10
2022-08-27T17:34:23.310Z,13.30
2022-08-27T17:35:23.298Z,9.60
2022-08-27T17:36:23.289Z,10.50
2022-08-27T17:37:23.286Z,10.60
2022-08-27T17:38:23.269Z,10.60
2022-08-27T17:39:23.259Z,9.80
2022-08-27T17:40:23.325Z,9.89
2022-08-27T17:41:23.238Z,9.30
2022-08-27T17:42:23.227Z,9.39
2022-08-27T17:43:23.215Z,10.39
2022-08-27T17:44:23.214Z,9.69
2022-08-27T17:45:23.194Z,9.50
2022-08-27T17:46:23.215Z,9.69
2022-08-27T17:47:23.172Z,9.39
2022-08-27T17:48:26.542Z,9.39
2022-08-27T17:49:23.155Z,9.50
2022-08-27T17:50:23.145Z,9.60
2022-08-27T17:51:23.135Z,9.89
2022-08-27T17:52:23.125Z,9.89
2022-08-27T17:53:23.111Z,10.00
2022-08-27T17:54:23.101Z,9.60
2022-08-27T17:55:23.091Z,10.60
2022-08-27T17:56:23.083Z,10.80
2022-08-27T17:57:23.073Z,8.60
2022-08-27T17:58:23.066Z,9.19
2022-08-27T17:59:23.053Z,9.39
2022-08-27T18:00:23.042Z,9.10
2022-08-27T18:01:23.074Z,9.00
2022-08-27T18:02:23.022Z,9.00
2022-08-27T18:03:23.009Z,10.89
2022-08-27T18:04:23.005Z,9.89
2022-08-27T18:05:23.127Z,10.80
2022-08-27T18:06:22.983Z,12.10
2022-08-27T18:07:22.971Z,11.00
2022-08-27T18:08:22.963Z,9.60
2022-08-27T18:09:22.949Z,9.69
2022-08-27T18:10:22.942Z,9.69
2022-08-27T18:11:22.929Z,11.60
2022-08-27T18:12:22.921Z,9.39
2022-08-27T18:13:22.908Z,9.39
2022-08-27T18:14:22.900Z,9.80
2022-08-27T18:15:22.889Z,9.60
2022-08-27T18:16:22.930Z,10.00
2022-08-27T18:17:22.867Z,9.89
2022-08-27T18:18:22.857Z,9.39
2022-08-27T18:19:22.850Z,9.30
2022-08-27T18:20:22.836Z,9.50
2022-08-27T18:21:25.394Z,9.50
2022-08-27T18:22:22.817Z,9.30
2022-08-27T18:23:22.805Z,9.60
2022-08-27T18:24:22.796Z,9.89
2022-08-27T18:25:22.791Z,10.89
2022-08-27T18:26:22.773Z,9.19
2022-08-27T18:27:22.762Z,10.00
2022-08-27T18:28:22.752Z,10.50
2022-08-27T18:29:22.742Z,10.10
2022-08-27T18:30:22.734Z,9.39
2022-08-27T18:31:22.737Z,9.89
2022-08-27T18:32:22.711Z,9.80
2022-08-27T18:33:22.700Z,10.89
2022-08-27T18:34:22.691Z,9.50
2022-08-27T18:35:22.681Z,9.50
2022-08-27T18:36:22.667Z,9.30
2022-08-27T18:37:22.657Z,9.89
2022-08-27T18:38:22.649Z,10.30
2022-08-27T18:39:25.925Z,9.80
2022-08-27T18:41:22.617Z,10.89
2022-08-27T18:42:22.605Z,9.69
2022-08-27T18:43:22.597Z,10.80
2022-08-27T18:48:22.544Z,12.10
2022-08-27T18:49:22.535Z,9.30
2022-08-27T18:50:22.524Z,10.39
2022-08-27T18:51:22.515Z,11.69
2022-08-27T18:52:22.509Z,9.19
2022-08-27T18:53:22.491Z,9.50
2022-08-27T19:34:22.064Z,10.69
